Time;durP1;ratioP1;P1;durP2;ratioP2;P2;SDS_P1;SDS_P2;PMS_P1;PMS_P2;Temp;Humidity;BMP_temperature;BMP_pressure;BME280_temperature;BME280_humidity;BME280_pressure;Samples;Min_cycle;Max_cycle;Signal;HPM_P1;HPM_P2
2021/01/10 00:00:43;;;;;;;38.75;17.83;;;4.20;99.90;;;;;;3619342;39;20750;-74
2021/01/10 00:03:10;;;;;;;36.63;18.85;;;4.20;99.90;;;;;;3622417;39;20268;-74
2021/01/10 00:05:40;;;;;;;35.90;18.27;;;4.30;99.90;;;;;;3620158;39;20241;-74
2021/01/10 00:08:07;;;;;;;36.95;17.50;;;4.40;99.90;;;;;;3619975;39;20272;-75
2021/01/10 00:10:35;;;;;;;46.50;17.85;;;4.40;99.90;;;;;;3619863;39;20237;-74
2021/01/10 00:13:04;;;;;;;44.83;19.00;;;4.30;99.90;;;;;;3622081;39;20251;-75
2021/01/10 00:15:31;;;;;;;38.53;18.05;;;4.30;99.90;;;;;;3623385;39;20244;-74
2021/01/10 00:17:58;;;;;;;46.80;18.27;;;4.30;99.90;;;;;;3621226;39;20264;-74
2021/01/10 00:20:25;;;;;;;36.65;17.90;;;4.10;99.90;;;;;;3621880;39;20244;-74
2021/01/10 00:22:51;;;;;;;43.63;18.23;;;4.10;99.90;;;;;;3622247;39;20285;-74
2021/01/10 00:25:18;;;;;;;37.80;15.80;;;4.00;99.90;;;;;;3621843;39;20892;-74
2021/01/10 00:27:45;;;;;;;37.80;19.38;;;4.10;99.90;;;;;;3621881;39;20286;-74
2021/01/10 00:30:14;;;;;;;41.63;19.13;;;4.10;99.90;;;;;;3621248;39;20360;-74
2021/01/10 00:32:47;;;;;;;39.92;18.38;;;4.10;99.90;;;;;;3623395;39;20247;-74
2021/01/10 00:35:13;;;;;;;31.77;14.95;;;4.20;99.90;;;;;;3622094;39;20270;-74
2021/01/10 00:37:42;;;;;;;33.72;17.52;;;4.20;99.90;;;;;;3624493;39;20243;-74
2021/01/10 00:40:09;;;;;;;31.10;15.85;;;4.20;99.90;;;;;;3624352;31;20283;-74
2021/01/10 00:42:39;;;;;;;45.42;18.98;;;4.20;99.90;;;;;;3621776;39;20352;-74
2021/01/10 00:45:06;;;;;;;35.65;17.40;;;4.30;99.90;;;;;;3621011;39;20245;-74
2021/01/10 00:47:33;;;;;;;33.97;15.95;;;4.30;99.90;;;;;;3622190;39;20260;-74
2021/01/10 00:50:00;;;;;;;34.78;17.75;;;4.40;99.90;;;;;;3624527;39;20255;-74
2021/01/10 00:52:29;;;;;;;37.55;18.20;;;4.30;99.90;;;;;;3623450;39;20248;-74
2021/01/10 00:54:55;;;;;;;37.58;16.70;;;4.30;99.90;;;;;;3623138;39;20274;-74
2021/01/10 00:57:22;;;;;;;39.47;18.50;;;4.40;99.90;;;;;;3622807;39;20240;-74
2021/01/10 00:59:48;;;;;;;36.65;17.33;;;4.30;99.90;;;;;;3621267;39;20252;-74
2021/01/10 01:02:15;;;;;;;41.40;18.40;;;4.20;99.90;;;;;;3624453;39;20355;-74
2021/01/10 01:04:42;;;;;;;42.83;18.77;;;4.20;99.90;;;;;;3621863;39;20243;-75
2021/01/10 01:07:09;;;;;;;35.45;17.02;;;4.20;99.90;;;;;;3623692;39;20752;-74
2021/01/10 01:09:35;;;;;;;42.15;19.25;;;4.20;99.90;;;;;;3624974;39;20263;-74
2021/01/10 01:12:04;;;;;;;41.30;18.42;;;4.20;99.90;;;;;;3624678;39;20337;-75
2021/01/10 01:14:30;;;;;;;37.67;17.40;;;4.30;99.90;;;;;;3621562;39;20281;-74
2021/01/10 01:16:57;;;;;;;39.88;17.58;;;4.30;99.90;;;;;;3623561;39;20244;-74
2021/01/10 01:19:24;;;;;;;46.42;18.45;;;4.30;99.90;;;;;;3627760;39;20256;-74
2021/01/10 01:21:51;;;;;;;40.72;17.98;;;4.40;99.90;;;;;;3621331;39;20261;-74
2021/01/10 01:24:21;;;;;;;42.92;18.08;;;4.40;99.90;;;;;;3637270;32;20263;-74
2021/01/10 01:26:47;;;;;;;44.35;18.77;;;4.40;99.90;;;;;;3639345;32;20279;-74
2021/01/10 01:29:14;;;;;;;43.28;19.63;;;4.40;99.90;;;;;;3624101;39;20280;-74
2021/01/10 01:31:41;;;;;;;43.80;18.40;;;4.40;99.90;;;;;;3621122;39;20301;-74
2021/01/10 01:34:07;;;;;;;43.50;18.40;;;4.40;99.90;;;;;;3620819;39;20274;-74
2021/01/10 01:36:34;;;;;;;42.03;18.75;;;4.40;99.90;;;;;;3626302;39;20337;-74
2021/01/10 01:39:02;;;;;;;35.35;17.70;;;4.40;99.90;;;;;;3623454;39;20261;-74
2021/01/10 01:41:35;;;;;;;44.47;18.10;;;4.40;99.90;;;;;;3621274;39;20268;-74
2021/01/10 01:44:02;;;;;;;40.55;17.83;;;4.30;99.90;;;;;;3621054;39;20287;-74
2021/01/10 01:46:31;;;;;;;37.88;18.15;;;4.20;99.90;;;;;;3620586;39;20264;-74
2021/01/10 01:49:00;;;;;;;43.67;18.27;;;4.20;99.90;;;;;;3620915;39;20239;-74
2021/01/10 01:51:27;;;;;;;40.83;19.05;;;4.20;99.90;;;;;;3626985;31;20260;-74
2021/01/10 01:53:54;;;;;;;36.72;18.02;;;4.20;99.90;;;;;;3625050;39;20240;-74
2021/01/10 01:56:20;;;;;;;38.63;17.48;;;4.20;99.90;;;;;;3623540;39;20352;-74
2021/01/10 01:58:58;;;;;;;41.20;16.20;;;4.30;99.90;;;;;;3620716;39;20274;-74
2021/01/10 02:01:26;;;;;;;40.45;18.15;;;4.20;99.90;;;;;;3619732;39;20259;-75
2021/01/10 02:03:59;;;;;;;35.85;16.17;;;4.20;99.90;;;;;;3620651;39;20264;-75
2021/01/10 02:06:31;;;;;;;43.58;18.20;;;4.20;99.90;;;;;;3620169;39;20249;-74
2021/01/10 02:09:02;;;;;;;40.55;17.27;;;4.10;99.90;;;;;;3621113;39;20300;-75
2021/01/10 02:11:31;;;;;;;42.65;16.50;;;4.10;99.90;;;;;;3621307;39;20333;-75
2021/01/10 02:14:02;;;;;;;51.30;18.42;;;4.00;99.90;;;;;;3623751;39;20435;-75
2021/01/10 02:16:28;;;;;;;43.72;19.00;;;4.00;99.90;;;;;;3623601;39;20268;-75
2021/01/10 02:18:55;;;;;;;44.30;18.40;;;4.00;99.90;;;;;;3621107;39;20252;-75
2021/01/10 02:21:24;;;;;;;45.15;19.25;;;4.00;99.90;;;;;;3623235;39;20278;-74
2021/01/10 02:23:54;;;;;;;40.13;16.35;;;4.00;99.90;;;;;;3621520;39;20343;-74
2021/01/10 02:26:21;;;;;;;37.88;17.30;;;4.00;99.90;;;;;;3620919;39;20347;-74
2021/01/10 02:28:48;;;;;;;52.33;17.85;;;4.00;99.90;;;;;;3623064;39;20284;-75
2021/01/10 02:31:16;;;;;;;42.05;17.40;;;3.80;99.90;;;;;;3620553;39;20303;-75
2021/01/10 02:33:49;;;;;;;40.80;16.50;;;3.70;99.90;;;;;;3620523;39;20264;-75
2021/01/10 02:36:19;;;;;;;38.90;18.45;;;3.70;99.90;;;;;;3623270;39;20265;-75
2021/01/10 02:38:49;;;;;;;39.55;16.10;;;3.70;99.90;;;;;;3623907;39;20254;-75
2021/01/10 02:41:26;;;;;;;39.30;17.63;;;3.70;99.90;;;;;;3624604;39;20273;-74
2021/01/10 02:44:04;;;;;;;37.92;16.42;;;3.70;99.90;;;;;;3621451;39;20260;-74
2021/01/10 02:46:33;;;;;;;46.20;18.42;;;3.80;99.90;;;;;;3620415;39;20261;-73
2021/01/10 02:49:00;;;;;;;38.28;17.50;;;3.80;99.90;;;;;;3622569;39;20339;-74
2021/01/10 02:51:26;;;;;;;41.03;16.80;;;3.80;99.90;;;;;;3621318;39;20352;-75
2021/01/10 02:53:53;;;;;;;42.00;19.00;;;3.80;99.90;;;;;;3620332;39;20248;-74
2021/01/10 02:56:19;;;;;;;36.90;17.42;;;3.90;99.90;;;;;;3621568;39;20351;-75
2021/01/10 02:58:51;;;;;;;38.30;18.90;;;3.90;99.90;;;;;;3620605;39;20831;-75
2021/01/10 03:01:18;;;;;;;36.15;16.33;;;3.90;99.90;;;;;;3620904;39;20367;-75
2021/01/10 03:03:46;;;;;;;37.60;17.85;;;3.80;99.90;;;;;;3620837;39;20287;-75
2021/01/10 03:06:13;;;;;;;43.47;18.67;;;3.80;99.90;;;;;;3625009;39;20259;-74
2021/01/10 03:08:40;;;;;;;49.92;19.10;;;3.80;99.90;;;;;;3619978;39;20288;-74
2021/01/10 03:11:07;;;;;;;43.20;18.55;;;3.80;99.90;;;;;;3623299;31;20407;-74
2021/01/10 03:13:33;;;;;;;40.83;17.90;;;3.80;99.90;;;;;;3620369;39;20244;-74
2021/01/10 03:16:02;;;;;;;42.78;17.60;;;3.80;99.90;;;;;;3623871;39;20337;-74
2021/01/10 03:18:28;;;;;;;39.45;17.05;;;3.80;99.90;;;;;;3622628;39;20264;-74
2021/01/10 03:20:55;;;;;;;36.90;17.02;;;3.80;99.90;;;;;;3620233;39;20359;-74
2021/01/10 03:23:21;;;;;;;31.67;16.48;;;3.80;99.90;;;;;;3620149;39;20268;-74
2021/01/10 03:25:48;;;;;;;54.58;17.98;;;3.80;99.90;;;;;;3624125;39;20331;-74
2021/01/10 03:28:14;;;;;;;39.67;18.65;;;3.80;99.90;;;;;;3620468;39;20708;-74
2021/01/10 03:30:41;;;;;;;38.42;16.90;;;3.80;99.90;;;;;;3622888;39;20253;-74
2021/01/10 03:33:08;;;;;;;38.97;17.63;;;3.80;99.90;;;;;;3622400;39;20253;-74
2021/01/10 03:35:35;;;;;;;33.70;17.45;;;3.80;99.90;;;;;;3622420;39;20292;-74
2021/01/10 03:38:03;;;;;;;45.28;18.85;;;3.80;99.90;;;;;;3623289;39;20260;-74
2021/01/10 03:40:31;;;;;;;42.83;18.38;;;3.80;99.90;;;;;;3622781;39;20305;-74
2021/01/10 03:42:57;;;;;;;39.08;17.30;;;3.80;99.90;;;;;;3623789;39;20339;-74
2021/01/10 03:45:24;;;;;;;36.28;16.55;;;3.70;99.90;;;;;;3621752;39;20243;-74
2021/01/10 03:47:50;;;;;;;41.97;19.33;;;3.60;99.90;;;;;;3621844;39;20251;-74
2021/01/10 03:50:18;;;;;;;40.55;17.83;;;3.70;99.90;;;;;;3620935;39;20388;-74
2021/01/10 03:52:44;;;;;;;34.42;16.05;;;3.70;99.90;;;;;;3620923;39;20263;-73
2021/01/10 03:55:12;;;;;;;42.85;17.33;;;3.70;99.90;;;;;;3622497;39;20255;-74
2021/01/10 03:57:39;;;;;;;42.88;19.08;;;3.70;99.90;;;;;;3627158;31;20265;-73
2021/01/10 04:00:07;;;;;;;66.72;17.45;;;3.70;99.90;;;;;;3620916;39;20248;-73
2021/01/10 04:02:34;;;;;;;52.75;18.70;;;3.70;99.90;;;;;;3625029;39;20236;-74
2021/01/10 04:05:00;;;;;;;70.18;20.17;;;3.60;99.90;;;;;;3622176;39;20274;-74
2021/01/10 04:07:27;;;;;;;58.25;18.15;;;3.40;99.90;;;;;;3645174;32;20256;-74
2021/01/10 04:09:54;;;;;;;98.32;19.50;;;3.30;99.90;;;;;;3622063;39;20267;-73
2021/01/10 04:12:20;;;;;;;40.25;15.90;;;3.30;99.90;;;;;;3625041;39;20260;-74
2021/01/10 04:14:47;;;;;;;58.88;18.65;;;3.30;99.90;;;;;;3621548;39;20267;-73
2021/01/10 04:17:13;;;;;;;63.72;18.80;;;3.40;99.90;;;;;;3621630;39;20306;-73
2021/01/10 04:19:40;;;;;;;60.10;17.85;;;3.50;99.90;;;;;;3626459;39;20322;-73
2021/01/10 04:22:06;;;;;;;31.85;14.88;;;3.50;99.90;;;;;;3622463;32;20284;-73
2021/01/10 04:24:34;;;;;;;39.03;17.38;;;3.40;99.90;;;;;;3621495;39;20270;-73
2021/01/10 04:27:00;;;;;;;34.60;16.30;;;3.30;99.90;;;;;;3621583;39;20267;-73
2021/01/10 04:29:27;;;;;;;42.92;17.58;;;3.30;99.90;;;;;;3621877;39;20280;-73
2021/01/10 04:31:56;;;;;;;46.55;14.95;;;3.20;99.90;;;;;;3621704;39;20268;-73
2021/01/10 04:34:22;;;;;;;32.97;15.50;;;3.30;99.90;;;;;;3621479;39;20292;-73
2021/01/10 04:36:49;;;;;;;35.88;17.33;;;3.20;99.90;;;;;;3621587;39;20303;-73
2021/01/10 04:39:15;;;;;;;36.92;16.27;;;3.20;99.90;;;;;;3621696;39;20267;-73
2021/01/10 04:41:44;;;;;;;31.73;14.65;;;3.30;99.90;;;;;;3622166;39;20274;-74
2021/01/10 04:44:12;;;;;;;31.35;15.55;;;3.40;99.90;;;;;;3621863;39;20244;-73
2021/01/10 04:46:38;;;;;;;29.70;14.77;;;3.50;99.90;;;;;;3621264;39;20776;-74
2021/01/10 04:49:06;;;;;;;32.72;15.80;;;3.60;99.90;;;;;;3622156;39;20261;-73
2021/01/10 04:51:36;;;;;;;37.25;17.40;;;3.60;99.90;;;;;;3624223;39;20280;-73
2021/01/10 04:54:04;;;;;;;38.13;16.95;;;3.50;99.90;;;;;;3621627;39;20335;-74
2021/01/10 04:56:31;;;;;;;37.25;16.33;;;3.50;99.90;;;;;;3624774;39;20263;-74
2021/01/10 04:59:02;;;;;;;39.92;17.02;;;3.50;99.90;;;;;;3623509;39;20761;-73
2021/01/10 05:01:34;;;;;;;36.28;16.17;;;3.50;99.90;;;;;;3621788;39;20244;-73
2021/01/10 05:04:01;;;;;;;33.17;16.30;;;3.40;99.90;;;;;;3625505;39;20281;-74
2021/01/10 05:06:27;;;;;;;37.58;17.20;;;3.40;99.90;;;;;;3624656;39;20264;-74
2021/01/10 05:08:55;;;;;;;33.53;15.93;;;3.40;99.90;;;;;;3621823;39;20554;-74
2021/01/10 05:11:21;;;;;;;34.75;15.90;;;3.50;99.90;;;;;;3626799;39;20256;-74
2021/01/10 05:13:48;;;;;;;53.05;17.73;;;3.50;99.90;;;;;;3626289;39;20257;-74
2021/01/10 05:16:22;;;;;;;40.83;17.67;;;3.60;99.90;;;;;;3620920;39;20261;-74
2021/01/10 05:18:50;;;;;;;34.53;17.35;;;3.60;99.90;;;;;;3620790;39;20263;-74
2021/01/10 05:21:19;;;;;;;32.22;15.75;;;3.60;99.90;;;;;;3622997;39;20348;-74
2021/01/10 05:23:45;;;;;;;25.73;14.10;;;3.50;99.90;;;;;;3626818;31;20267;-74
2021/01/10 05:26:12;;;;;;;29.27;14.82;;;3.60;99.90;;;;;;3621111;39;20326;-74
2021/01/10 05:28:38;;;;;;;36.20;15.75;;;3.50;99.90;;;;;;3623160;39;20252;-74
2021/01/10 05:31:10;;;;;;;35.67;16.05;;;3.50;99.90;;;;;;3621583;39;20236;-74
2021/01/10 05:33:50;;;;;;;34.20;15.50;;;3.50;99.90;;;;;;3620706;39;20266;-74
2021/01/10 05:36:29;;;;;;;33.95;16.77;;;3.50;99.90;;;;;;3624214;39;20255;-74
2021/01/10 05:38:56;;;;;;;29.58;14.20;;;3.50;99.90;;;;;;3624088;39;20271;-74
2021/01/10 05:41:24;;;;;;;29.45;15.10;;;3.40;99.90;;;;;;3621547;39;20280;-74
2021/01/10 05:43:58;;;;;;;34.58;14.85;;;3.40;99.90;;;;;;3621107;39;20290;-74
2021/01/10 05:46:26;;;;;;;26.15;14.05;;;3.40;99.90;;;;;;3620932;39;20249;-74
2021/01/10 05:48:53;;;;;;;28.92;14.02;;;3.40;99.90;;;;;;3620970;39;20459;-73
2021/01/10 05:51:25;;;;;;;26.02;13.55;;;3.40;99.90;;;;;;3623984;39;20399;-74
2021/01/10 05:53:51;;;;;;;30.88;13.82;;;3.40;99.90;;;;;;3623490;39;20515;-74
2021/01/10 05:56:18;;;;;;;27.98;14.90;;;3.40;99.90;;;;;;3623868;39;20340;-73
2021/01/10 05:58:45;;;;;;;27.95;13.85;;;3.40;99.90;;;;;;3624049;39;20320;-74
2021/01/10 06:01:13;;;;;;;26.50;14.02;;;3.40;99.90;;;;;;3620850;39;20359;-73
2021/01/10 06:03:40;;;;;;;25.08;12.90;;;3.40;99.90;;;;;;3622050;39;20244;-73
2021/01/10 06:06:09;;;;;;;24.17;13.95;;;3.40;99.90;;;;;;3624258;39;20844;-73
2021/01/10 06:08:37;;;;;;;28.88;14.90;;;3.40;99.90;;;;;;3622481;39;20646;-74
2021/01/10 06:11:20;;;;;;;28.48;13.48;;;3.40;99.90;;;;;;3624551;39;20251;-74
2021/01/10 06:13:52;;;;;;;24.13;12.45;;;3.50;99.90;;;;;;3626061;31;20244;-74
2021/01/10 06:16:20;;;;;;;21.63;13.48;;;3.50;99.90;;;;;;3621067;39;20271;-74
2021/01/10 06:18:49;;;;;;;24.10;12.57;;;3.50;99.90;;;;;;3620682;39;20262;-74
2021/01/10 06:21:21;;;;;;;28.15;12.82;;;3.50;99.90;;;;;;3623648;39;20274;-74
2021/01/10 06:23:53;;;;;;;29.70;14.50;;;3.50;99.90;;;;;;3621418;39;20287;-74
2021/01/10 06:26:21;;;;;;;26.45;14.48;;;3.40;99.90;;;;;;3624010;39;20243;-74
2021/01/10 06:29:01;;;;;;;24.92;13.48;;;3.30;99.90;;;;;;3622425;39;20273;-74
2021/01/10 06:31:30;;;;;;;38.15;14.88;;;3.30;99.90;;;;;;3620470;39;20252;-74
2021/01/10 06:34:05;;;;;;;30.50;14.55;;;3.30;99.90;;;;;;3620269;39;20267;-74
2021/01/10 06:36:34;;;;;;;32.22;15.00;;;3.30;99.90;;;;;;3620100;39;20287;-74
2021/01/10 06:39:03;;;;;;;33.67;15.05;;;3.30;99.90;;;;;;3622467;39;20739;-74
2021/01/10 06:42:04;;;;;;;36.28;15.23;;;3.30;99.90;;;;;;3620012;39;20244;-74
2021/01/10 06:44:34;;;;;;;27.77;14.65;;;3.30;99.90;;;;;;3619663;39;20242;-74
2021/01/10 06:47:01;;;;;;;36.85;16.55;;;3.40;99.90;;;;;;3644861;31;20252;-74
2021/01/10 06:49:28;;;;;;;47.00;16.33;;;3.40;99.90;;;;;;3620246;39;20256;-74
2021/01/10 06:51:58;;;;;;;38.88;16.05;;;3.30;99.90;;;;;;3625471;39;20273;-74
2021/01/10 06:54:25;;;;;;;41.58;19.38;;;3.40;99.90;;;;;;3624347;39;20307;-74
2021/01/10 06:56:53;;;;;;;46.17;20.98;;;3.30;99.90;;;;;;3625342;39;20268;-74
2021/01/10 06:59:21;;;;;;;39.92;19.33;;;3.40;99.90;;;;;;3621388;39;20314;-74
2021/01/10 07:02:00;;;;;;;42.20;20.45;;;3.40;99.90;;;;;;3622482;39;20255;-74
2021/01/10 07:04:59;;;;;;;39.03;19.60;;;3.40;99.90;;;;;;3623288;31;20764;-74
2021/01/10 07:07:38;;;;;;;42.95;19.85;;;3.50;99.90;;;;;;3619609;39;20234;-74
2021/01/10 07:10:26;;;;;;;39.35;15.93;;;3.60;99.90;;;;;;3622691;39;20253;-74
2021/01/10 07:12:53;;;;;;;37.72;19.00;;;3.60;99.90;;;;;;3623717;39;20372;-74
2021/01/10 07:15:24;;;;;;;34.13;17.15;;;3.60;99.90;;;;;;3622685;39;20285;-74
2021/01/10 07:18:10;;;;;;;45.15;20.63;;;3.60;99.90;;;;;;3622968;39;20252;-74
2021/01/10 07:20:45;;;;;;;43.28;19.10;;;3.70;99.90;;;;;;3621284;39;20274;-74
2021/01/10 07:23:33;;;;;;;48.80;20.10;;;3.70;99.90;;;;;;3621693;39;20314;-74
2021/01/10 07:26:01;;;;;;;42.42;19.27;;;3.70;99.90;;;;;;3625089;39;20298;-74
2021/01/10 07:28:42;;;;;;;43.33;18.77;;;3.70;99.90;;;;;;3622267;39;20240;-74
2021/01/10 07:31:11;;;;;;;46.78;20.30;;;3.70;99.90;;;;;;3655634;31;20256;-74
2021/01/10 07:33:38;;;;;;;55.28;21.95;;;3.70;99.90;;;;;;3620822;39;20113;-74
2021/01/10 07:36:05;;;;;;;52.70;21.35;;;3.70;99.90;;;;;;3639396;31;20280;-74
2021/01/10 07:38:35;;;;;;;42.85;19.75;;;3.70;99.90;;;;;;3622143;39;20275;-74
2021/01/10 07:41:21;;;;;;;57.60;22.35;;;3.70;99.90;;;;;;3626393;39;20267;-74
2021/01/10 07:43:52;;;;;;;43.05;19.63;;;3.60;99.90;;;;;;3625255;39;20291;-74
2021/01/10 07:47:02;;;;;;;53.33;20.90;;;3.60;99.90;;;;;;3622878;39;20260;-74
2021/01/10 07:49:53;;;;;;;44.35;21.15;;;3.60;99.90;;;;;;3621968;39;20294;-73
2021/01/10 07:52:50;;;;;;;55.03;19.75;;;3.70;99.90;;;;;;3619635;39;20254;-73
2021/01/10 07:55:25;;;;;;;55.00;23.38;;;3.70;99.90;;;;;;3622103;39;20344;-73
2021/01/10 07:57:52;;;;;;;50.83;21.45;;;3.60;99.90;;;;;;3626373;39;20360;-73
2021/01/10 08:00:23;;;;;;;47.25;20.48;;;3.60;99.90;;;;;;3625185;39;20236;-74
2021/01/10 08:02:55;;;;;;;56.13;22.80;;;3.40;99.90;;;;;;3624553;39;20651;-74
2021/01/10 08:05:32;;;;;;;48.67;22.35;;;3.50;99.90;;;;;;3624322;39;20256;-75
2021/01/10 08:08:02;;;;;;;48.60;20.88;;;3.50;99.90;;;;;;3656709;32;20248;-74
2021/01/10 08:10:42;;;;;;;43.55;20.27;;;3.50;99.90;;;;;;3658388;31;20277;-76
2021/01/10 08:13:27;;;;;;;44.47;19.88;;;3.60;99.90;;;;;;3622494;39;20279;-75
2021/01/10 08:15:54;;;;;;;69.82;23.92;;;3.70;99.90;;;;;;3623013;39;20240;-75
2021/01/10 08:18:22;;;;;;;57.00;22.92;;;3.70;99.90;;;;;;3625511;39;20252;-74
2021/01/10 08:20:49;;;;;;;52.63;22.73;;;3.60;99.90;;;;;;3621742;39;20263;-75
2021/01/10 08:23:17;;;;;;;53.65;21.95;;;3.60;99.90;;;;;;3625299;39;20339;-75
2021/01/10 08:25:45;;;;;;;49.38;20.63;;;3.60;99.90;;;;;;3625687;39;20251;-75
2021/01/10 08:28:12;;;;;;;52.10;21.60;;;3.60;99.90;;;;;;3621045;39;20277;-75
2021/01/10 08:30:39;;;;;;;48.03;20.75;;;3.50;99.90;;;;;;3621911;39;20266;-75
2021/01/10 08:33:05;;;;;;;59.97;24.60;;;3.60;99.90;;;;;;3657743;31;20248;-74
2021/01/10 08:35:32;;;;;;;59.58;23.98;;;3.60;99.90;;;;;;3622000;39;20371;-75
2021/01/10 08:37:59;;;;;;;53.58;22.83;;;3.60;99.90;;;;;;3621488;39;20243;-75
2021/01/10 08:40:25;;;;;;;51.05;21.92;;;3.60;99.90;;;;;;3621449;39;20267;-75
2021/01/10 08:43:02;;;;;;;47.83;22.50;;;3.80;99.90;;;;;;3621658;39;20368;-75
2021/01/10 08:45:29;;;;;;;58.80;23.48;;;3.70;99.90;;;;;;3622592;39;20287;-75
2021/01/10 08:47:55;;;;;;;56.13;24.20;;;3.70;99.90;;;;;;3633767;39;20340;-75
2021/01/10 08:50:22;;;;;;;53.53;24.38;;;3.70;99.90;;;;;;3632519;39;20270;-75
2021/01/10 08:52:53;;;;;;;54.80;23.13;;;3.80;99.90;;;;;;3632609;39;20687;-75
2021/01/10 08:55:33;;;;;;;60.53;24.95;;;3.80;99.90;;;;;;3629857;39;20364;-75
2021/01/10 08:58:01;;;;;;;51.78;24.00;;;3.90;99.90;;;;;;3633857;39;20323;-75
2021/01/10 09:00:28;;;;;;;62.53;26.25;;;3.90;99.90;;;;;;3632308;39;20375;-75
2021/01/10 09:02:55;;;;;;;64.38;24.38;;;3.90;99.90;;;;;;3632357;39;20279;-75
2021/01/10 09:05:25;;;;;;;49.67;25.83;;;4.00;99.90;;;;;;3634725;39;20313;-75
2021/01/10 09:07:56;;;;;;;58.85;25.20;;;4.00;99.90;;;;;;3632088;39;20364;-75
2021/01/10 09:10:25;;;;;;;57.17;26.10;;;4.00;99.90;;;;;;3630027;39;20375;-75
2021/01/10 09:12:57;;;;;;;74.65;28.13;;;4.10;99.90;;;;;;3623287;39;20244;-75
2021/01/10 09:15:28;;;;;;;65.18;25.50;;;4.10;99.90;;;;;;3624443;39;20253;-75
2021/01/10 09:17:59;;;;;;;53.15;24.50;;;4.10;99.90;;;;;;3623844;39;20652;-75
2021/01/10 09:20:28;;;;;;;57.72;24.05;;;4.20;99.90;;;;;;3624660;39;20278;-75
2021/01/10 09:22:57;;;;;;;64.80;25.65;;;4.20;99.90;;;;;;3620687;39;20301;-75
2021/01/10 09:25:24;;;;;;;60.00;25.35;;;4.20;99.90;;;;;;3620560;39;20290;-74
2021/01/10 09:28:07;;;;;;;51.85;24.98;;;4.20;99.90;;;;;;3620870;39;20263;-75
2021/01/10 09:30:35;;;;;;;59.13;27.90;;;4.20;99.90;;;;;;3621285;39;20256;-75
2021/01/10 09:33:04;;;;;;;52.40;24.20;;;4.30;99.90;;;;;;3624034;31;20869;-74
2021/01/10 09:35:37;;;;;;;63.92;25.35;;;4.40;99.90;;;;;;3622179;39;20248;-77
2021/01/10 09:38:14;;;;;;;61.58;25.90;;;4.40;99.90;;;;;;3625010;39;20256;-78
2021/01/10 09:41:02;;;;;;;53.28;24.67;;;4.40;99.90;;;;;;3628762;39;20244;-78
2021/01/10 09:43:36;;;;;;;54.45;25.02;;;4.50;99.90;;;;;;3622763;39;20386;-78
2021/01/10 09:46:20;;;;;;;62.08;26.38;;;4.40;99.90;;;;;;3622734;39;20248;-77
2021/01/10 09:48:50;;;;;;;59.38;24.67;;;4.50;99.90;;;;;;3624934;39;20836;-75
2021/01/10 09:51:16;;;;;;;56.25;26.08;;;4.40;99.90;;;;;;3621713;39;20770;-75
2021/01/10 09:53:47;;;;;;;63.15;26.83;;;4.20;99.90;;;;;;3625438;39;20252;-76
2021/01/10 09:56:32;;;;;;;56.97;27.40;;;4.20;99.90;;;;;;3641664;31;20278;-79
2021/01/10 09:58:59;;;;;;;52.20;26.38;;;4.20;99.90;;;;;;3622165;39;20252;-77
2021/01/10 10:01:36;;;;;;;59.05;26.17;;;4.20;99.90;;;;;;3621694;39;20357;-77
2021/01/10 10:04:03;;;;;;;59.25;25.60;;;4.30;99.90;;;;;;3625308;39;20264;-79
2021/01/10 10:06:29;;;;;;;58.15;24.90;;;4.40;99.90;;;;;;3622525;39;20276;-77
2021/01/10 10:08:56;;;;;;;64.68;27.20;;;4.50;99.90;;;;;;3622554;39;20269;-76
2021/01/10 10:11:23;;;;;;;54.35;24.83;;;4.50;99.90;;;;;;3620790;39;20355;-76
2021/01/10 10:13:57;;;;;;;50.33;23.05;;;4.60;99.90;;;;;;3622854;39;20627;-76
2021/01/10 10:16:23;;;;;;;55.80;25.63;;;4.70;99.90;;;;;;3620452;39;20275;-76
2021/01/10 10:18:50;;;;;;;62.30;24.50;;;4.70;99.90;;;;;;3620638;39;20975;-76
2021/01/10 10:21:24;;;;;;;55.75;26.13;;;4.80;99.90;;;;;;3623566;39;20355;-76
2021/01/10 10:23:50;;;;;;;57.25;27.38;;;4.50;99.90;;;;;;3621684;39;20271;-78
2021/01/10 10:26:20;;;;;;;57.75;24.92;;;4.50;99.90;;;;;;3623304;39;20255;-77
2021/01/10 10:28:46;;;;;;;54.10;26.13;;;4.50;99.90;;;;;;3621848;39;20262;-80
2021/01/10 10:31:13;;;;;;;57.05;25.17;;;4.60;99.90;;;;;;3621624;39;20348;-77
2021/01/10 10:33:39;;;;;;;64.35;26.27;;;4.70;99.90;;;;;;3625124;39;20291;-77
2021/01/10 10:36:07;;;;;;;53.92;25.80;;;4.60;99.90;;;;;;3624235;39;20264;-78
2021/01/10 10:38:34;;;;;;;53.88;22.98;;;4.70;99.90;;;;;;3623913;39;20244;-78
2021/01/10 10:41:00;;;;;;;57.92;26.45;;;4.80;99.90;;;;;;3623062;39;20326;-77
2021/01/10 10:43:27;;;;;;;61.05;28.17;;;4.80;99.90;;;;;;3622355;39;20259;-79
2021/01/10 10:45:54;;;;;;;52.70;25.55;;;4.80;99.90;;;;;;3625698;39;20336;-78
2021/01/10 10:48:20;;;;;;;48.53;24.10;;;4.80;99.90;;;;;;3622959;39;20252;-78
2021/01/10 10:50:47;;;;;;;52.30;23.30;;;4.80;99.90;;;;;;3622141;39;20251;-78
2021/01/10 10:53:14;;;;;;;48.08;22.70;;;5.00;99.90;;;;;;3622175;39;20240;-79
2021/01/10 10:55:40;;;;;;;44.95;24.20;;;5.00;99.90;;;;;;3622060;39;20259;-78
2021/01/10 10:58:07;;;;;;;50.30;21.73;;;5.00;99.90;;;;;;3620718;39;20336;-76
2021/01/10 11:00:35;;;;;;;48.72;25.08;;;5.00;99.90;;;;;;3632738;31;20369;-77
2021/01/10 11:11:39;;;;;;;51.65;25.35;;;5.00;99.90;;;;;;3639932;31;20283;-75
2021/01/10 11:14:07;;;;;;;46.30;22.88;;;5.00;99.90;;;;;;3631985;39;20290;-77
2021/01/10 11:16:35;;;;;;;54.05;24.05;;;5.10;99.90;;;;;;3632540;39;20251;-77
2021/01/10 11:19:02;;;;;;;46.47;22.15;;;5.10;99.90;;;;;;3629423;39;20264;-75
2021/01/10 11:21:30;;;;;;;58.83;25.63;;;5.20;99.90;;;;;;3629109;39;20774;-75
2021/01/10 11:23:56;;;;;;;57.70;22.63;;;5.20;99.90;;;;;;3628649;39;20329;-75
2021/01/10 11:26:23;;;;;;;51.60;22.10;;;5.30;99.90;;;;;;3628653;39;20249;-73
2021/01/10 11:28:50;;;;;;;53.00;24.70;;;5.40;99.90;;;;;;3631419;39;20269;-76
2021/01/10 11:31:18;;;;;;;46.30;21.77;;;5.40;99.90;;;;;;3641764;31;20270;-76
2021/01/10 11:33:45;;;;;;;53.72;23.10;;;5.50;99.90;;;;;;3630846;39;20273;-78
2021/01/10 11:38:53;;;;;;;42.35;21.52;;;5.70;99.90;;;;;;3643520;31;20273;-76
2021/01/10 11:41:21;;;;;;;57.42;26.45;;;5.60;99.90;;;;;;3629282;39;20253;-76
2021/01/10 11:43:48;;;;;;;38.65;19.85;;;5.50;99.90;;;;;;3629760;39;20271;-78
2021/01/10 11:46:16;;;;;;;31.63;18.25;;;5.40;99.90;;;;;;3630780;39;20811;-74
2021/01/10 11:48:44;;;;;;;35.67;18.80;;;5.40;99.90;;;;;;3636011;39;20283;-74
2021/01/10 11:51:12;;;;;;;41.67;18.98;;;5.30;99.90;;;;;;3629081;39;20343;-74
2021/01/10 11:53:39;;;;;;;42.10;18.75;;;5.40;99.90;;;;;;3634114;39;20250;-74
2021/01/10 11:56:06;;;;;;;40.65;20.88;;;5.60;99.90;;;;;;3630157;39;20350;-73
2021/01/10 11:58:33;;;;;;;45.22;19.63;;;5.70;99.90;;;;;;3631842;39;20256;-74
2021/01/10 12:01:00;;;;;;;31.88;17.85;;;5.80;99.90;;;;;;3631064;39;20265;-74
2021/01/10 12:03:28;;;;;;;42.03;18.92;;;5.80;99.90;;;;;;3632729;31;20274;-75
2021/01/10 12:05:54;;;;;;;33.85;18.50;;;5.90;99.90;;;;;;3628391;39;20285;-74
2021/01/10 12:08:22;;;;;;;28.42;17.90;;;5.70;99.90;;;;;;3628841;39;20799;-74
2021/01/10 12:10:49;;;;;;;34.30;18.45;;;5.70;99.90;;;;;;3628215;39;20373;-74
2021/01/10 12:13:16;;;;;;;41.53;18.77;;;5.80;99.90;;;;;;3629799;39;20376;-74
2021/01/10 12:15:44;;;;;;;40.05;19.05;;;5.80;99.90;;;;;;3626925;31;20282;-73
2021/01/10 12:18:10;;;;;;;38.67;19.17;;;5.70;99.90;;;;;;3622861;39;20297;-74
2021/01/10 12:20:38;;;;;;;34.67;18.83;;;5.80;99.90;;;;;;3625209;31;20272;-73
2021/01/10 12:23:05;;;;;;;30.73;16.95;;;5.70;99.90;;;;;;3621568;39;20281;-74
2021/01/10 12:25:31;;;;;;;29.33;17.67;;;5.60;99.90;;;;;;3621589;39;20354;-74
2021/01/10 12:27:58;;;;;;;35.08;16.73;;;5.70;99.90;;;;;;3625661;39;20315;-74
2021/01/10 12:30:25;;;;;;;41.10;18.02;;;5.70;99.90;;;;;;3621919;39;20291;-73
2021/01/10 12:32:53;;;;;;;33.83;17.55;;;5.70;99.90;;;;;;3622338;39;21319;-73
2021/01/10 12:35:19;;;;;;;28.63;16.17;;;5.70;99.90;;;;;;3621359;39;20281;-73
2021/01/10 12:37:48;;;;;;;39.85;16.40;;;5.60;99.90;;;;;;3621223;39;20536;-73
2021/01/10 12:40:16;;;;;;;31.60;17.38;;;5.70;99.90;;;;;;3623056;39;20265;-74
2021/01/10 12:42:43;;;;;;;35.88;16.70;;;5.60;99.90;;;;;;3622104;39;20238;-74
2021/01/10 12:45:11;;;;;;;34.35;16.52;;;5.70;99.90;;;;;;3621545;39;20237;-74
2021/01/10 12:47:41;;;;;;;31.00;16.77;;;5.70;99.90;;;;;;3621355;39;20345;-73
2021/01/10 12:50:09;;;;;;;31.10;18.15;;;5.70;99.90;;;;;;3646595;31;20250;-75
2021/01/10 12:52:36;;;;;;;28.67;17.08;;;5.80;99.90;;;;;;3623186;39;20281;-75
2021/01/10 12:55:05;;;;;;;30.70;15.52;;;5.90;99.90;;;;;;3621028;39;20281;-75
2021/01/10 12:57:31;;;;;;;31.85;15.80;;;5.80;99.90;;;;;;3624926;39;20260;-75